Cataract, Indiana
Current Conditions -  °F | °C
As of 12:53 PM on Tuesday 21 Oct 2014 (Local Time) from KBMG Reporting Station
Overcast Overcast  
Wind Chill: 55°   Ceiling: 4500
Heat Index: 55°   Visibility: 10mi
Dew Point: 45°   Wind: 12mph
Humidity: 69%   Direction: 10°N
Pressure: 30.1"   Gusts: NA
Location:  39.3008°N, 86.8112°W
Report Text: KBMG 211653Z 01010KT 10SM SCT024 SCT033 OVC045 13/07 A3010 RMK AO2 SLP191 T01280072 $
Loading
Personal Weather Stations






























Interactive Weather Map
Tropical Storm Tracking
New forecast layout! Learn more

10-Day Weather Forecast

Advertisements
Track Severe Weather on mobile